sensor_id;sensor_type;location;lat;lon;timestamp;P1;durP1;ratioP1;P2;durP2;ratioP2
67715;SDS011;54508;43.238;25.306;2022-10-23T00:01:19;25.75;;;15.35;;
67715;SDS011;54508;43.238;25.306;2022-10-23T00:03:54;26.70;;;15.10;;
67715;SDS011;54508;43.238;25.306;2022-10-23T00:06:27;29.88;;;14.50;;
67715;SDS011;54508;43.238;25.306;2022-10-23T00:08:53;24.67;;;14.25;;
67715;SDS011;54508;43.238;25.306;2022-10-23T00:11:22;23.93;;;14.27;;
67715;SDS011;54508;43.238;25.306;2022-10-23T00:13:49;26.08;;;14.80;;
67715;SDS011;54508;43.238;25.306;2022-10-23T00:16:15;20.02;;;13.20;;
67715;SDS011;54508;43.238;25.306;2022-10-23T00:18:41;21.83;;;13.80;;
67715;SDS011;54508;43.238;25.306;2022-10-23T00:21:07;22.38;;;13.32;;
67715;SDS011;54508;43.238;25.306;2022-10-23T00:23:34;18.80;;;12.87;;
67715;SDS011;54508;43.238;25.306;2022-10-23T00:25:59;20.48;;;12.63;;
67715;SDS011;54508;43.238;25.306;2022-10-23T00:28:25;18.30;;;12.50;;
67715;SDS011;54508;43.238;25.306;2022-10-23T00:30:50;18.40;;;12.15;;
67715;SDS011;54508;43.238;25.306;2022-10-23T00:33:16;19.13;;;11.73;;
67715;SDS011;54508;43.238;25.306;2022-10-23T00:35:42;18.57;;;11.73;;
67715;SDS011;54508;43.238;25.306;2022-10-23T00:38:08;19.70;;;11.73;;
67715;SDS011;54508;43.238;25.306;2022-10-23T00:40:34;18.10;;;10.82;;
67715;SDS011;54508;43.238;25.306;2022-10-23T00:43:00;19.42;;;11.02;;
67715;SDS011;54508;43.238;25.306;2022-10-23T00:45:27;19.38;;;12.07;;
67715;SDS011;54508;43.238;25.306;2022-10-23T00:47:57;19.60;;;11.27;;
67715;SDS011;54508;43.238;25.306;2022-10-23T00:50:24;22.25;;;11.57;;
67715;SDS011;54508;43.238;25.306;2022-10-23T00:52:50;19.15;;;11.82;;
67715;SDS011;54508;43.238;25.306;2022-10-23T00:55:17;15.60;;;10.53;;
67715;SDS011;54508;43.238;25.306;2022-10-23T00:57:44;20.30;;;11.60;;
67715;SDS011;54508;43.238;25.306;2022-10-23T01:00:16;15.40;;;10.48;;
67715;SDS011;54508;43.238;25.306;2022-10-23T01:02:47;17.73;;;10.85;;
67715;SDS011;54508;43.238;25.306;2022-10-23T01:05:12;20.70;;;12.07;;
67715;SDS011;54508;43.238;25.306;2022-10-23T01:16:04;18.75;;;10.75;;
67715;SDS011;54508;43.238;25.306;2022-10-23T01:18:48;17.05;;;11.10;;
67715;SDS011;54508;43.238;25.306;2022-10-23T01:23:55;18.08;;;11.40;;
67715;SDS011;54508;43.238;25.306;2022-10-23T01:26:37;19.17;;;10.93;;
67715;SDS011;54508;43.238;25.306;2022-10-23T01:32:03;17.83;;;10.88;;
67715;SDS011;54508;43.238;25.306;2022-10-23T01:37:30;13.07;;;8.90;;
67715;SDS011;54508;43.238;25.306;2022-10-23T01:40:22;15.50;;;9.10;;
67715;SDS011;54508;43.238;25.306;2022-10-23T01:42:54;13.48;;;9.02;;
67715;SDS011;54508;43.238;25.306;2022-10-23T01:45:32;15.35;;;9.02;;
67715;SDS011;54508;43.238;25.306;2022-10-23T01:48:15;18.87;;;9.67;;
67715;SDS011;54508;43.238;25.306;2022-10-23T01:50:43;14.50;;;9.18;;
67715;SDS011;54508;43.238;25.306;2022-10-23T01:53:10;13.20;;;8.93;;
67715;SDS011;54508;43.238;25.306;2022-10-23T01:55:35;13.60;;;8.73;;
67715;SDS011;54508;43.238;25.306;2022-10-23T01:58:02;12.05;;;8.68;;
67715;SDS011;54508;43.238;25.306;2022-10-23T02:00:28;16.73;;;9.20;;
67715;SDS011;54508;43.238;25.306;2022-10-23T02:02:54;14.93;;;9.07;;
67715;SDS011;54508;43.238;25.306;2022-10-23T02:05:22;15.68;;;8.75;;
67715;SDS011;54508;43.238;25.306;2022-10-23T02:07:49;14.95;;;9.02;;
67715;SDS011;54508;43.238;25.306;2022-10-23T02:10:15;15.75;;;8.52;;
67715;SDS011;54508;43.238;25.306;2022-10-23T02:12:49;16.30;;;9.57;;
67715;SDS011;54508;43.238;25.306;2022-10-23T02:15:27;13.65;;;9.13;;
67715;SDS011;54508;43.238;25.306;2022-10-23T02:23:26;11.48;;;8.05;;
67715;SDS011;54508;43.238;25.306;2022-10-23T02:25:57;13.02;;;8.57;;
67715;SDS011;54508;43.238;25.306;2022-10-23T02:28:28;15.82;;;8.65;;
67715;SDS011;54508;43.238;25.306;2022-10-23T02:30:58;14.63;;;7.97;;
67715;SDS011;54508;43.238;25.306;2022-10-23T02:33:24;13.38;;;8.43;;
67715;SDS011;54508;43.238;25.306;2022-10-23T02:35:51;14.93;;;8.23;;
67715;SDS011;54508;43.238;25.306;2022-10-23T02:41:25;13.40;;;8.20;;
67715;SDS011;54508;43.238;25.306;2022-10-23T02:44:00;15.70;;;9.07;;
67715;SDS011;54508;43.238;25.306;2022-10-23T02:46:48;14.57;;;8.05;;
67715;SDS011;54508;43.238;25.306;2022-10-23T02:49:21;13.68;;;8.07;;
67715;SDS011;54508;43.238;25.306;2022-10-23T02:51:55;13.32;;;8.35;;
67715;SDS011;54508;43.238;25.306;2022-10-23T02:57:05;11.97;;;7.97;;
67715;SDS011;54508;43.238;25.306;2022-10-23T02:59:44;9.23;;;7.72;;
67715;SDS011;54508;43.238;25.306;2022-10-23T03:02:57;11.05;;;8.07;;
67715;SDS011;54508;43.238;25.306;2022-10-23T03:05:11;12.55;;;8.73;;
67715;SDS011;54508;43.238;25.306;2022-10-23T03:07:39;12.52;;;8.82;;
67715;SDS011;54508;43.238;25.306;2022-10-23T03:10:05;15.45;;;9.88;;
67715;SDS011;54508;43.238;25.306;2022-10-23T03:12:32;16.52;;;9.55;;
67715;SDS011;54508;43.238;25.306;2022-10-23T03:14:57;15.43;;;9.80;;
67715;SDS011;54508;43.238;25.306;2022-10-23T03:17:23;16.07;;;9.40;;
67715;SDS011;54508;43.238;25.306;2022-10-23T03:19:49;18.23;;;10.20;;
67715;SDS011;54508;43.238;25.306;2022-10-23T03:22:15;17.70;;;9.88;;
67715;SDS011;54508;43.238;25.306;2022-10-23T03:24:40;16.77;;;9.40;;
67715;SDS011;54508;43.238;25.306;2022-10-23T03:27:06;11.50;;;8.38;;
67715;SDS011;54508;43.238;25.306;2022-10-23T03:29:31;13.68;;;9.07;;
67715;SDS011;54508;43.238;25.306;2022-10-23T03:31:57;13.60;;;8.13;;
67715;SDS011;54508;43.238;25.306;2022-10-23T03:34:22;11.90;;;7.87;;
67715;SDS011;54508;43.238;25.306;2022-10-23T03:36:48;13.20;;;8.50;;
67715;SDS011;54508;43.238;25.306;2022-10-23T03:39:13;17.45;;;8.07;;
67715;SDS011;54508;43.238;25.306;2022-10-23T03:41:39;13.33;;;8.53;;
67715;SDS011;54508;43.238;25.306;2022-10-23T03:44:04;10.90;;;7.87;;
67715;SDS011;54508;43.238;25.306;2022-10-23T03:46:30;13.27;;;7.80;;
67715;SDS011;54508;43.238;25.306;2022-10-23T03:48:55;15.95;;;7.50;;
67715;SDS011;54508;43.238;25.306;2022-10-23T03:51:22;14.05;;;9.85;;
67715;SDS011;54508;43.238;25.306;2022-10-23T03:53:48;11.98;;;8.02;;
67715;SDS011;54508;43.238;25.306;2022-10-23T03:56:14;13.53;;;8.20;;
67715;SDS011;54508;43.238;25.306;2022-10-23T03:58:39;11.97;;;8.60;;
67715;SDS011;54508;43.238;25.306;2022-10-23T04:01:04;11.80;;;8.35;;
67715;SDS011;54508;43.238;25.306;2022-10-23T04:03:30;10.90;;;7.10;;
67715;SDS011;54508;43.238;25.306;2022-10-23T04:05:55;14.93;;;7.50;;
67715;SDS011;54508;43.238;25.306;2022-10-23T04:08:21;12.93;;;7.67;;
67715;SDS011;54508;43.238;25.306;2022-10-23T04:10:46;16.08;;;8.00;;
67715;SDS011;54508;43.238;25.306;2022-10-23T04:13:12;11.15;;;7.57;;
67715;SDS011;54508;43.238;25.306;2022-10-23T04:15:37;14.80;;;7.50;;
67715;SDS011;54508;43.238;25.306;2022-10-23T04:18:03;14.43;;;7.97;;
67715;SDS011;54508;43.238;25.306;2022-10-23T04:20:28;14.60;;;7.20;;
67715;SDS011;54508;43.238;25.306;2022-10-23T04:22:54;14.70;;;7.67;;
67715;SDS011;54508;43.238;25.306;2022-10-23T04:25:19;14.23;;;7.10;;
67715;SDS011;54508;43.238;25.306;2022-10-23T04:27:45;11.73;;;7.00;;
67715;SDS011;54508;43.238;25.306;2022-10-23T04:30:10;12.63;;;7.00;;
67715;SDS011;54508;43.238;25.306;2022-10-23T04:32:36;13.40;;;7.03;;
67715;SDS011;54508;43.238;25.306;2022-10-23T04:35:02;9.10;;;6.70;;
67715;SDS011;54508;43.238;25.306;2022-10-23T04:37:27;9.57;;;6.90;;
67715;SDS011;54508;43.238;25.306;2022-10-23T04:39:53;15.00;;;7.63;;
67715;SDS011;54508;43.238;25.306;2022-10-23T04:42:18;11.23;;;7.30;;
67715;SDS011;54508;43.238;25.306;2022-10-23T04:44:44;12.63;;;6.85;;
67715;SDS011;54508;43.238;25.306;2022-10-23T04:47:09;10.63;;;6.87;;
67715;SDS011;54508;43.238;25.306;2022-10-23T04:49:34;9.60;;;6.77;;
67715;SDS011;54508;43.238;25.306;2022-10-23T04:52:00;10.30;;;6.80;;
67715;SDS011;54508;43.238;25.306;2022-10-23T04:54:25;10.23;;;6.63;;
67715;SDS011;54508;43.238;25.306;2022-10-23T04:56:51;8.83;;;6.00;;
67715;SDS011;54508;43.238;25.306;2022-10-23T04:59:16;13.87;;;7.73;;
67715;SDS011;54508;43.238;25.306;2022-10-23T05:01:42;10.27;;;6.57;;
67715;SDS011;54508;43.238;25.306;2022-10-23T05:04:07;9.67;;;6.57;;
67715;SDS011;54508;43.238;25.306;2022-10-23T05:06:33;12.43;;;6.38;;
67715;SDS011;54508;43.238;25.306;2022-10-23T05:08:58;10.33;;;6.77;;
67715;SDS011;54508;43.238;25.306;2022-10-23T05:11:23;11.80;;;6.53;;
67715;SDS011;54508;43.238;25.306;2022-10-23T05:13:49;13.00;;;7.20;;
67715;SDS011;54508;43.238;25.306;2022-10-23T05:16:57;10.38;;;5.95;;
67715;SDS011;54508;43.238;25.306;2022-10-23T05:19:06;13.50;;;6.35;;
67715;SDS011;54508;43.238;25.306;2022-10-23T05:21:35;9.23;;;6.13;;
67715;SDS011;54508;43.238;25.306;2022-10-23T05:24:01;11.85;;;6.35;;
67715;SDS011;54508;43.238;25.306;2022-10-23T05:26:27;14.77;;;6.40;;
67715;SDS011;54508;43.238;25.306;2022-10-23T05:28:53;10.65;;;6.30;;
67715;SDS011;54508;43.238;25.306;2022-10-23T05:31:18;10.82;;;6.07;;
67715;SDS011;54508;43.238;25.306;2022-10-23T05:33:45;13.05;;;6.30;;
67715;SDS011;54508;43.238;25.306;2022-10-23T05:36:11;12.43;;;6.18;;
67715;SDS011;54508;43.238;25.306;2022-10-23T05:38:37;12.48;;;6.32;;
67715;SDS011;54508;43.238;25.306;2022-10-23T05:41:03;8.50;;;5.70;;
67715;SDS011;54508;43.238;25.306;2022-10-23T05:43:28;7.80;;;6.43;;
67715;SDS011;54508;43.238;25.306;2022-10-23T05:45:55;11.70;;;6.28;;
67715;SDS011;54508;43.238;25.306;2022-10-23T05:48:21;9.70;;;6.18;;
67715;SDS011;54508;43.238;25.306;2022-10-23T05:50:47;7.80;;;6.07;;
67715;SDS011;54508;43.238;25.306;2022-10-23T05:53:12;8.52;;;6.15;;
67715;SDS011;54508;43.238;25.306;2022-10-23T05:55:38;9.98;;;6.30;;
67715;SDS011;54508;43.238;25.306;2022-10-23T05:58:04;8.47;;;6.73;;
67715;SDS011;54508;43.238;25.306;2022-10-23T06:00:29;13.50;;;6.55;;
67715;SDS011;54508;43.238;25.306;2022-10-23T06:02:55;7.87;;;5.87;;
67715;SDS011;54508;43.238;25.306;2022-10-23T06:05:22;11.57;;;6.47;;
67715;SDS011;54508;43.238;25.306;2022-10-23T06:07:48;10.60;;;6.63;;
67715;SDS011;54508;43.238;25.306;2022-10-23T06:10:13;14.97;;;6.63;;
67715;SDS011;54508;43.238;25.306;2022-10-23T06:12:39;8.70;;;6.40;;
67715;SDS011;54508;43.238;25.306;2022-10-23T06:15:04;10.18;;;6.30;;
67715;SDS011;54508;43.238;25.306;2022-10-23T06:17:30;9.30;;;6.68;;
67715;SDS011;54508;43.238;25.306;2022-10-23T06:19:56;9.50;;;5.93;;
67715;SDS011;54508;43.238;25.306;2022-10-23T06:22:27;9.98;;;6.10;;
67715;SDS011;54508;43.238;25.306;2022-10-23T06:24:53;12.98;;;5.90;;
67715;SDS011;54508;43.238;25.306;2022-10-23T06:27:19;10.02;;;6.22;;
67715;SDS011;54508;43.238;25.306;2022-10-23T06:29:44;8.93;;;6.03;;
67715;SDS011;54508;43.238;25.306;2022-10-23T06:32:10;8.53;;;5.80;;
67715;SDS011;54508;43.238;25.306;2022-10-23T06:34:35;9.55;;;5.03;;
67715;SDS011;54508;43.238;25.306;2022-10-23T06:37:00;7.88;;;5.78;;
67715;SDS011;54508;43.238;25.306;2022-10-23T06:39:26;14.57;;;5.83;;
67715;SDS011;54508;43.238;25.306;2022-10-23T06:41:52;14.40;;;5.77;;
67715;SDS011;54508;43.238;25.306;2022-10-23T06:44:17;9.88;;;5.50;;
67715;SDS011;54508;43.238;25.306;2022-10-23T06:46:43;15.77;;;5.20;;
67715;SDS011;54508;43.238;25.306;2022-10-23T06:49:11;14.20;;;5.72;;
67715;SDS011;54508;43.238;25.306;2022-10-23T06:51:40;7.47;;;4.95;;
67715;SDS011;54508;43.238;25.306;2022-10-23T06:54:06;14.80;;;5.70;;
67715;SDS011;54508;43.238;25.306;2022-10-23T06:56:31;16.33;;;5.05;;
67715;SDS011;54508;43.238;25.306;2022-10-23T06:58:57;11.53;;;4.40;;
67715;SDS011;54508;43.238;25.306;2022-10-23T07:01:22;11.83;;;4.80;;
67715;SDS011;54508;43.238;25.306;2022-10-23T07:03:47;8.70;;;4.57;;
67715;SDS011;54508;43.238;25.306;2022-10-23T07:06:13;6.47;;;4.63;;
67715;SDS011;54508;43.238;25.306;2022-10-23T07:08:39;7.07;;;4.57;;
67715;SDS011;54508;43.238;25.306;2022-10-23T07:11:05;9.68;;;4.60;;
67715;SDS011;54508;43.238;25.306;2022-10-23T07:13:32;6.03;;;4.63;;
67715;SDS011;54508;43.238;25.306;2022-10-23T07:15:58;12.40;;;4.43;;
67715;SDS011;54508;43.238;25.306;2022-10-23T07:18:24;6.50;;;4.37;;
67715;SDS011;54508;43.238;25.306;2022-10-23T07:20:55;6.38;;;4.30;;
67715;SDS011;54508;43.238;25.306;2022-10-23T07:23:21;7.10;;;4.18;;
67715;SDS011;54508;43.238;25.306;2022-10-23T07:25:47;8.53;;;4.30;;
67715;SDS011;54508;43.238;25.306;2022-10-23T07:28:12;7.77;;;4.27;;
67715;SDS011;54508;43.238;25.306;2022-10-23T07:30:38;7.60;;;4.20;;
67715;SDS011;54508;43.238;25.306;2022-10-23T07:33:05;7.40;;;4.43;;
67715;SDS011;54508;43.238;25.306;2022-10-23T07:35:30;8.10;;;4.07;;
67715;SDS011;54508;43.238;25.306;2022-10-23T07:37:57;4.43;;;3.90;;
67715;SDS011;54508;43.238;25.306;2022-10-23T07:40:24;7.25;;;4.40;;
67715;SDS011;54508;43.238;25.306;2022-10-23T07:42:49;6.25;;;4.13;;
67715;SDS011;54508;43.238;25.306;2022-10-23T07:45:15;6.97;;;3.90;;
67715;SDS011;54508;43.238;25.306;2022-10-23T07:47:40;6.10;;;3.60;;
67715;SDS011;54508;43.238;25.306;2022-10-23T07:50:06;6.28;;;4.03;;
67715;SDS011;54508;43.238;25.306;2022-10-23T07:52:33;5.60;;;4.03;;
67715;SDS011;54508;43.238;25.306;2022-10-23T07:55:00;5.45;;;3.58;;
67715;SDS011;54508;43.238;25.306;2022-10-23T07:57:25;6.68;;;3.85;;
67715;SDS011;54508;43.238;25.306;2022-10-23T07:59:51;5.20;;;3.20;;
67715;SDS011;54508;43.238;25.306;2022-10-23T08:02:16;5.47;;;3.47;;
67715;SDS011;54508;43.238;25.306;2022-10-23T08:04:42;4.57;;;3.88;;
67715;SDS011;54508;43.238;25.306;2022-10-23T08:07:07;4.28;;;3.17;;
67715;SDS011;54508;43.238;25.306;2022-10-23T08:09:33;4.90;;;3.37;;
67715;SDS011;54508;43.238;25.306;2022-10-23T08:11:59;4.35;;;2.88;;
67715;SDS011;54508;43.238;25.306;2022-10-23T08:14:25;9.73;;;2.90;;
67715;SDS011;54508;43.238;25.306;2022-10-23T08:16:51;3.63;;;2.80;;
67715;SDS011;54508;43.238;25.306;2022-10-23T08:19:17;4.15;;;2.70;;
67715;SDS011;54508;43.238;25.306;2022-10-23T08:21:42;6.57;;;2.60;;
67715;SDS011;54508;43.238;25.306;2022-10-23T08:24:08;3.13;;;2.40;;
67715;SDS011;54508;43.238;25.306;2022-10-23T08:26:37;3.17;;;2.80;;
67715;SDS011;54508;43.238;25.306;2022-10-23T08:29:03;3.15;;;2.38;;
67715;SDS011;54508;43.238;25.306;2022-10-23T08:31:28;5.57;;;2.20;;
67715;SDS011;54508;43.238;25.306;2022-10-23T08:33:54;6.20;;;2.40;;
67715;SDS011;54508;43.238;25.306;2022-10-23T08:36:24;3.03;;;2.20;;
67715;SDS011;54508;43.238;25.306;2022-10-23T08:38:51;2.88;;;2.20;;
67715;SDS011;54508;43.238;25.306;2022-10-23T08:41:32;3.78;;;2.25;;
67715;SDS011;54508;43.238;25.306;2022-10-23T08:46:35;2.70;;;1.90;;
67715;SDS011;54508;43.238;25.306;2022-10-23T08:51:39;7.53;;;2.00;;
67715;SDS011;54508;43.238;25.306;2022-10-23T08:56:38;6.15;;;2.20;;
67715;SDS011;54508;43.238;25.306;2022-10-23T08:59:21;4.27;;;2.20;;
67715;SDS011;54508;43.238;25.306;2022-10-23T09:02:33;3.58;;;2.13;;
67715;SDS011;54508;43.238;25.306;2022-10-23T09:04:42;2.50;;;1.98;;
67715;SDS011;54508;43.238;25.306;2022-10-23T09:07:25;6.68;;;1.98;;
67715;SDS011;54508;43.238;25.306;2022-10-23T09:13:03;3.30;;;1.80;;
67715;SDS011;54508;43.238;25.306;2022-10-23T09:15:43;3.75;;;1.95;;
67715;SDS011;54508;43.238;25.306;2022-10-23T09:18:12;4.70;;;1.80;;
67715;SDS011;54508;43.238;25.306;2022-10-23T09:20:40;5.65;;;2.10;;
67715;SDS011;54508;43.238;25.306;2022-10-23T09:23:11;3.40;;;1.90;;
67715;SDS011;54508;43.238;25.306;2022-10-23T09:25:40;4.33;;;1.80;;
67715;SDS011;54508;43.238;25.306;2022-10-23T09:28:06;4.50;;;1.73;;
67715;SDS011;54508;43.238;25.306;2022-10-23T09:30:43;6.90;;;2.20;;
67715;SDS011;54508;43.238;25.306;2022-10-23T09:36:00;7.72;;;1.75;;
67715;SDS011;54508;43.238;25.306;2022-10-23T09:41:00;2.70;;;2.10;;
67715;SDS011;54508;43.238;25.306;2022-10-23T09:43:35;2.15;;;1.95;;
67715;SDS011;54508;43.238;25.306;2022-10-23T09:46:02;2.15;;;1.80;;
67715;SDS011;54508;43.238;25.306;2022-10-23T09:48:30;5.03;;;2.03;;
67715;SDS011;54508;43.238;25.306;2022-10-23T09:50:56;4.17;;;1.60;;
67715;SDS011;54508;43.238;25.306;2022-10-23T09:55:56;4.20;;;1.80;;
67715;SDS011;54508;43.238;25.306;2022-10-23T09:58:26;3.58;;;1.75;;
67715;SDS011;54508;43.238;25.306;2022-10-23T10:00:55;2.92;;;1.60;;
67715;SDS011;54508;43.238;25.306;2022-10-23T10:03:21;3.90;;;2.15;;
67715;SDS011;54508;43.238;25.306;2022-10-23T10:06:01;5.60;;;1.90;;
67715;SDS011;54508;43.238;25.306;2022-10-23T10:08:34;8.18;;;2.28;;
67715;SDS011;54508;43.238;25.306;2022-10-23T10:16:35;3.60;;;2.15;;
67715;SDS011;54508;43.238;25.306;2022-10-23T10:19:17;8.35;;;2.25;;
67715;SDS011;54508;43.238;25.306;2022-10-23T10:24:40;3.60;;;1.50;;
67715;SDS011;54508;43.238;25.306;2022-10-23T10:30:07;2.15;;;1.60;;
67715;SDS011;54508;43.238;25.306;2022-10-23T10:35:42;4.35;;;1.52;;
67715;SDS011;54508;43.238;25.306;2022-10-23T10:57:35;7.40;;;2.13;;
67715;SDS011;54508;43.238;25.306;2022-10-23T11:00:14;5.47;;;1.98;;
67715;SDS011;54508;43.238;25.306;2022-10-23T11:02:44;2.67;;;1.58;;
67715;SDS011;54508;43.238;25.306;2022-10-23T11:07:59;5.05;;;2.20;;
67715;SDS011;54508;43.238;25.306;2022-10-23T11:10:28;2.83;;;1.67;;
67715;SDS011;54508;43.238;25.306;2022-10-23T11:12:54;5.90;;;1.90;;
67715;SDS011;54508;43.238;25.306;2022-10-23T11:15:21;3.20;;;1.77;;
67715;SDS011;54508;43.238;25.306;2022-10-23T11:17:52;2.00;;;1.47;;
67715;SDS011;54508;43.238;25.306;2022-10-23T11:36:49;3.83;;;2.00;;
67715;SDS011;54508;43.238;25.306;2022-10-23T11:39:26;3.38;;;1.70;;
67715;SDS011;54508;43.238;25.306;2022-10-23T11:41:58;3.65;;;2.10;;
67715;SDS011;54508;43.238;25.306;2022-10-23T11:58:48;2.47;;;1.63;;
67715;SDS011;54508;43.238;25.306;2022-10-23T12:01:25;4.43;;;1.60;;
67715;SDS011;54508;43.238;25.306;2022-10-23T12:04:15;3.93;;;1.67;;
67715;SDS011;54508;43.238;25.306;2022-10-23T12:06:57;3.15;;;1.70;;
67715;SDS011;54508;43.238;25.306;2022-10-23T12:14:49;3.50;;;1.70;;
67715;SDS011;54508;43.238;25.306;2022-10-23T12:19:47;2.95;;;1.60;;
67715;SDS011;54508;43.238;25.306;2022-10-23T12:22:14;6.00;;;1.37;;
67715;SDS011;54508;43.238;25.306;2022-10-23T12:40:38;7.00;;;1.77;;
67715;SDS011;54508;43.238;25.306;2022-10-23T12:43:15;2.42;;;1.73;;
67715;SDS011;54508;43.238;25.306;2022-10-23T12:45:51;3.38;;;1.35;;
67715;SDS011;54508;43.238;25.306;2022-10-23T12:48:19;2.63;;;1.90;;
67715;SDS011;54508;43.238;25.306;2022-10-23T12:50:50;3.05;;;1.52;;
67715;SDS011;54508;43.238;25.306;2022-10-23T12:53:17;3.40;;;1.80;;
67715;SDS011;54508;43.238;25.306;2022-10-23T12:56:00;2.22;;;1.60;;
67715;SDS011;54508;43.238;25.306;2022-10-23T12:58:27;4.32;;;1.73;;
67715;SDS011;54508;43.238;25.306;2022-10-23T13:00:56;4.70;;;1.53;;
67715;SDS011;54508;43.238;25.306;2022-10-23T13:03:23;3.35;;;2.42;;
67715;SDS011;54508;43.238;25.306;2022-10-23T13:05:50;4.68;;;1.60;;
67715;SDS011;54508;43.238;25.306;2022-10-23T13:08:17;2.65;;;1.70;;
67715;SDS011;54508;43.238;25.306;2022-10-23T13:10:43;2.15;;;1.90;;
67715;SDS011;54508;43.238;25.306;2022-10-23T13:13:09;2.70;;;1.50;;
67715;SDS011;54508;43.238;25.306;2022-10-23T13:15:39;4.20;;;1.98;;
67715;SDS011;54508;43.238;25.306;2022-10-23T13:18:07;5.63;;;1.98;;
67715;SDS011;54508;43.238;25.306;2022-10-23T13:20:34;2.17;;;1.60;;
67715;SDS011;54508;43.238;25.306;2022-10-23T13:23:18;4.30;;;1.77;;
67715;SDS011;54508;43.238;25.306;2022-10-23T13:28:30;5.82;;;2.00;;
67715;SDS011;54508;43.238;25.306;2022-10-23T13:33:37;3.30;;;2.40;;
67715;SDS011;54508;43.238;25.306;2022-10-23T13:39:27;2.10;;;1.83;;
67715;SDS011;54508;43.238;25.306;2022-10-23T13:41:28;4.88;;;2.40;;
67715;SDS011;54508;43.238;25.306;2022-10-23T13:43:58;3.10;;;1.53;;
67715;SDS011;54508;43.238;25.306;2022-10-23T13:46:24;2.85;;;1.80;;
67715;SDS011;54508;43.238;25.306;2022-10-23T13:48:50;3.03;;;2.10;;
67715;SDS011;54508;43.238;25.306;2022-10-23T13:53:48;4.70;;;2.08;;
67715;SDS011;54508;43.238;25.306;2022-10-23T13:56:15;2.08;;;1.85;;
67715;SDS011;54508;43.238;25.306;2022-10-23T13:58:42;2.85;;;1.80;;
67715;SDS011;54508;43.238;25.306;2022-10-23T14:01:11;2.53;;;1.80;;
67715;SDS011;54508;43.238;25.306;2022-10-23T14:03:43;2.95;;;1.90;;
67715;SDS011;54508;43.238;25.306;2022-10-23T14:06:09;2.90;;;1.90;;
67715;SDS011;54508;43.238;25.306;2022-10-23T14:08:34;2.03;;;1.70;;
67715;SDS011;54508;43.238;25.306;2022-10-23T14:11:00;3.30;;;1.97;;
67715;SDS011;54508;43.238;25.306;2022-10-23T14:13:25;4.83;;;1.97;;
67715;SDS011;54508;43.238;25.306;2022-10-23T14:15:53;3.50;;;1.95;;
67715;SDS011;54508;43.238;25.306;2022-10-23T14:18:20;3.53;;;1.80;;
67715;SDS011;54508;43.238;25.306;2022-10-23T14:20:46;2.15;;;1.95;;
67715;SDS011;54508;43.238;25.306;2022-10-23T14:23:11;2.63;;;1.87;;
67715;SDS011;54508;43.238;25.306;2022-10-23T14:25:37;2.50;;;2.25;;
67715;SDS011;54508;43.238;25.306;2022-10-23T14:28:02;1.80;;;1.50;;
67715;SDS011;54508;43.238;25.306;2022-10-23T14:30:28;3.07;;;1.80;;
67715;SDS011;54508;43.238;25.306;2022-10-23T14:32:53;3.13;;;1.63;;
67715;SDS011;54508;43.238;25.306;2022-10-23T14:35:19;1.80;;;1.70;;
67715;SDS011;54508;43.238;25.306;2022-10-23T14:37:44;2.17;;;1.70;;
67715;SDS011;54508;43.238;25.306;2022-10-23T14:40:10;3.10;;;2.00;;
67715;SDS011;54508;43.238;25.306;2022-10-23T14:42:36;3.10;;;2.00;;
67715;SDS011;54508;43.238;25.306;2022-10-23T14:45:01;2.07;;;1.70;;
67715;SDS011;54508;43.238;25.306;2022-10-23T14:47:27;5.35;;;2.08;;
67715;SDS011;54508;43.238;25.306;2022-10-23T14:49:53;2.30;;;1.60;;
67715;SDS011;54508;43.238;25.306;2022-10-23T14:52:18;2.70;;;2.00;;
67715;SDS011;54508;43.238;25.306;2022-10-23T14:54:44;2.90;;;1.67;;
67715;SDS011;54508;43.238;25.306;2022-10-23T14:57:09;2.70;;;1.83;;
67715;SDS011;54508;43.238;25.306;2022-10-23T14:59:39;2.53;;;1.90;;
67715;SDS011;54508;43.238;25.306;2022-10-23T15:02:05;4.37;;;2.67;;
67715;SDS011;54508;43.238;25.306;2022-10-23T15:04:30;3.63;;;1.90;;
67715;SDS011;54508;43.238;25.306;2022-10-23T15:06:56;2.28;;;1.95;;
67715;SDS011;54508;43.238;25.306;2022-10-23T15:09:21;3.07;;;2.13;;
67715;SDS011;54508;43.238;25.306;2022-10-23T15:11:47;2.20;;;1.70;;
67715;SDS011;54508;43.238;25.306;2022-10-23T15:14:13;3.00;;;2.35;;
67715;SDS011;54508;43.238;25.306;2022-10-23T15:16:41;2.70;;;2.03;;
67715;SDS011;54508;43.238;25.306;2022-10-23T15:19:07;3.35;;;2.28;;
67715;SDS011;54508;43.238;25.306;2022-10-23T15:21:34;5.28;;;2.25;;
67715;SDS011;54508;43.238;25.306;2022-10-23T15:23:59;5.50;;;2.40;;
67715;SDS011;54508;43.238;25.306;2022-10-23T15:26:25;6.10;;;2.55;;
67715;SDS011;54508;43.238;25.306;2022-10-23T15:28:52;3.50;;;2.50;;
67715;SDS011;54508;43.238;25.306;2022-10-23T15:33:53;5.43;;;2.60;;
67715;SDS011;54508;43.238;25.306;2022-10-23T15:36:19;5.72;;;2.60;;
67715;SDS011;54508;43.238;25.306;2022-10-23T15:38:44;3.83;;;2.90;;
67715;SDS011;54508;43.238;25.306;2022-10-23T15:41:14;3.43;;;3.13;;
67715;SDS011;54508;43.238;25.306;2022-10-23T15:43:41;4.20;;;3.00;;
67715;SDS011;54508;43.238;25.306;2022-10-23T15:46:07;4.73;;;3.37;;
67715;SDS011;54508;43.238;25.306;2022-10-23T15:48:33;5.03;;;3.60;;
67715;SDS011;54508;43.238;25.306;2022-10-23T15:50:58;7.50;;;4.50;;
67715;SDS011;54508;43.238;25.306;2022-10-23T15:53:24;7.80;;;4.83;;
67715;SDS011;54508;43.238;25.306;2022-10-23T15:55:50;8.13;;;5.07;;
67715;SDS011;54508;43.238;25.306;2022-10-23T15:58:15;8.10;;;5.50;;
67715;SDS011;54508;43.238;25.306;2022-10-23T16:00:40;9.27;;;5.43;;
67715;SDS011;54508;43.238;25.306;2022-10-23T16:03:06;8.23;;;5.03;;
67715;SDS011;54508;43.238;25.306;2022-10-23T16:05:31;11.23;;;5.90;;
67715;SDS011;54508;43.238;25.306;2022-10-23T16:07:57;9.83;;;5.80;;
67715;SDS011;54508;43.238;25.306;2022-10-23T16:10:22;10.73;;;5.60;;
67715;SDS011;54508;43.238;25.306;2022-10-23T16:12:49;10.15;;;5.70;;
67715;SDS011;54508;43.238;25.306;2022-10-23T16:15:14;9.00;;;5.80;;
67715;SDS011;54508;43.238;25.306;2022-10-23T16:17:40;12.37;;;6.10;;
67715;SDS011;54508;43.238;25.306;2022-10-23T16:20:05;8.52;;;5.72;;
67715;SDS011;54508;43.238;25.306;2022-10-23T16:22:31;8.13;;;5.60;;
67715;SDS011;54508;43.238;25.306;2022-10-23T16:24:57;8.50;;;5.87;;
67715;SDS011;54508;43.238;25.306;2022-10-23T16:27:22;8.32;;;5.28;;
67715;SDS011;54508;43.238;25.306;2022-10-23T16:29:48;10.67;;;5.33;;
67715;SDS011;54508;43.238;25.306;2022-10-23T16:32:13;8.73;;;5.60;;
67715;SDS011;54508;43.238;25.306;2022-10-23T16:34:38;9.30;;;5.47;;
67715;SDS011;54508;43.238;25.306;2022-10-23T16:37:04;8.93;;;5.00;;
67715;SDS011;54508;43.238;25.306;2022-10-23T16:39:29;8.33;;;5.50;;
67715;SDS011;54508;43.238;25.306;2022-10-23T16:41:55;9.70;;;5.53;;
67715;SDS011;54508;43.238;25.306;2022-10-23T16:44:21;9.90;;;5.72;;
67715;SDS011;54508;43.238;25.306;2022-10-23T16:46:46;9.03;;;5.43;;
67715;SDS011;54508;43.238;25.306;2022-10-23T16:49:12;10.50;;;6.40;;
67715;SDS011;54508;43.238;25.306;2022-10-23T16:51:38;12.48;;;6.50;;
67715;SDS011;54508;43.238;25.306;2022-10-23T16:54:04;23.30;;;7.22;;
67715;SDS011;54508;43.238;25.306;2022-10-23T16:56:29;14.03;;;7.70;;
67715;SDS011;54508;43.238;25.306;2022-10-23T16:58:56;19.33;;;9.93;;
67715;SDS011;54508;43.238;25.306;2022-10-23T17:01:24;24.27;;;11.47;;
67715;SDS011;54508;43.238;25.306;2022-10-23T17:03:51;22.65;;;12.30;;